createdAt,value
2023-12-21T00:00:14.358Z,100260.19
2023-12-21T00:02:48.295Z,100263.53
2023-12-21T00:05:15.524Z,100262.53
2023-12-21T00:07:43.299Z,100263.94
2023-12-21T00:10:11.194Z,100264.75
2023-12-21T00:12:38.414Z,100259.62
2023-12-21T00:15:06.239Z,100262.22
2023-12-21T00:17:34.421Z,100253.66
2023-12-21T00:20:01.763Z,100261.16
2023-12-21T00:22:29.811Z,100261.91
2023-12-21T00:24:57.211Z,100258.53
2023-12-21T00:27:24.915Z,100254.81
2023-12-21T00:29:52.312Z,100254.75
2023-12-21T00:32:19.662Z,100254.00
2023-12-21T00:35:02.838Z,100251.44
2023-12-21T00:37:31.612Z,100251.50
2023-12-21T00:39:59.418Z,100254.75
2023-12-21T00:42:27.188Z,100255.66
2023-12-21T00:44:55.186Z,100248.66
2023-12-21T00:47:24.298Z,100246.59
2023-12-21T00:49:52.108Z,100243.91
2023-12-21T00:52:20.163Z,100242.06
2023-12-21T00:54:47.856Z,100233.44
2023-12-21T00:57:15.541Z,100229.06
2023-12-21T00:59:43.498Z,100233.59
2023-12-21T01:02:11.210Z,100229.50
2023-12-21T01:04:39.374Z,100239.31
2023-12-21T01:07:07.359Z,100239.19
2023-12-21T01:09:34.534Z,100238.13
2023-12-21T01:12:02.183Z,100233.81
2023-12-21T01:14:30.791Z,100240.91
2023-12-21T01:16:58.178Z,100242.38
2023-12-21T01:19:25.907Z,100233.59
2023-12-21T01:21:53.438Z,100231.59
2023-12-21T01:24:21.334Z,100229.47
2023-12-21T01:26:49.026Z,100222.63
2023-12-21T01:29:17.146Z,100217.47
2023-12-21T01:31:44.389Z,100214.00
2023-12-21T01:34:11.708Z,100205.38
2023-12-21T01:36:39.716Z,100198.53
2023-12-21T01:39:07.920Z,100201.06
2023-12-21T01:41:35.830Z,100198.69
2023-12-21T01:44:03.767Z,100199.97
2023-12-21T01:46:31.561Z,100188.16
2023-12-21T01:48:59.379Z,100186.81
2023-12-21T01:51:26.914Z,100169.13
2023-12-21T01:53:54.043Z,100167.38
2023-12-21T01:56:21.797Z,100157.38
2023-12-21T01:58:49.903Z,100153.91
2023-12-21T02:01:20.812Z,100163.75
2023-12-21T02:03:48.884Z,100162.75
2023-12-21T02:06:16.249Z,100164.38
2023-12-21T02:08:44.002Z,100156.69
2023-12-21T02:11:11.416Z,100162.34
2023-12-21T02:13:39.161Z,100145.09
2023-12-21T02:16:07.936Z,100161.28
2023-12-21T02:18:35.972Z,100150.88
2023-12-21T02:21:03.721Z,100149.81
2023-12-21T02:23:31.482Z,100146.63
2023-12-21T02:25:59.442Z,100145.94
2023-12-21T02:28:27.190Z,100140.97
2023-12-21T02:30:55.034Z,100139.06
2023-12-21T02:33:28.272Z,100139.91
2023-12-21T02:35:55.424Z,100137.94
2023-12-21T02:38:24.846Z,100133.81
2023-12-21T02:40:52.625Z,100134.88
2023-12-21T02:43:19.838Z,100127.31
2023-12-21T02:45:47.992Z,100135.84
2023-12-21T02:48:15.752Z,100136.41
2023-12-21T02:50:42.909Z,100124.25
2023-12-21T02:53:10.677Z,100133.69
2023-12-21T02:55:37.950Z,100121.38
2023-12-21T02:58:05.169Z,100122.00
2023-12-21T03:00:32.616Z,100120.31
2023-12-21T03:02:59.857Z,100128.94
2023-12-21T03:05:27.093Z,100128.78
2023-12-21T03:07:55.212Z,100125.94
2023-12-21T03:10:22.394Z,100121.28
2023-12-21T03:12:49.874Z,100118.87
2023-12-21T03:15:17.504Z,100114.50
2023-12-21T03:17:45.504Z,100116.41
2023-12-21T03:20:12.891Z,100114.66
2023-12-21T03:22:41.289Z,100116.31
2023-12-21T03:25:08.506Z,100117.47
2023-12-21T03:27:36.002Z,100115.88
2023-12-21T03:30:03.772Z,100108.72
2023-12-21T03:32:31.524Z,100109.09
2023-12-21T03:34:58.880Z,100104.09
2023-12-21T03:37:28.575Z,100101.72
2023-12-21T03:39:56.811Z,100100.06
2023-12-21T03:42:24.115Z,100100.06
2023-12-21T03:44:51.523Z,100102.34
2023-12-21T03:47:18.818Z,100111.03
2023-12-21T03:49:46.058Z,100111.50
2023-12-21T03:52:13.553Z,100119.00
2023-12-21T03:54:43.163Z,100116.31
2023-12-21T03:57:10.340Z,100115.63
2023-12-21T03:59:37.814Z,100101.41
2023-12-21T04:02:05.518Z,100101.87
2023-12-21T04:04:33.415Z,100096.12
2023-12-21T04:07:00.708Z,100089.28
2023-12-21T04:09:27.983Z,100098.94
2023-12-21T04:11:55.431Z,100091.56
2023-12-21T04:14:22.557Z,100088.56
2023-12-21T04:16:52.228Z,100086.66
2023-12-21T04:19:19.996Z,100081.81
2023-12-21T04:21:47.813Z,100083.28
2023-12-21T04:24:16.533Z,100086.03
2023-12-21T04:26:43.927Z,100088.94
2023-12-21T04:29:11.146Z,100072.56
2023-12-21T04:31:43.628Z,100075.63
2023-12-21T04:34:11.694Z,100067.25
2023-12-21T04:36:39.085Z,100062.94
2023-12-21T04:39:06.361Z,100060.78
2023-12-21T04:41:34.380Z,100053.91
2023-12-21T04:44:01.565Z,100052.72
2023-12-21T04:46:28.757Z,100059.31
2023-12-21T04:48:56.863Z,100044.31
2023-12-21T04:51:24.047Z,100042.50
2023-12-21T04:53:51.414Z,100035.72
2023-12-21T04:56:19.047Z,100032.75
2023-12-21T04:58:46.775Z,100036.09
2023-12-21T05:01:14.040Z,100030.28
2023-12-21T05:03:41.792Z,100027.16
2023-12-21T05:06:09.281Z,100025.69
2023-12-21T05:08:36.986Z,100016.81
2023-12-21T05:11:04.498Z,100017.84
2023-12-21T05:13:32.503Z,100020.59
2023-12-21T05:15:59.882Z,100006.50
2023-12-21T05:18:27.901Z,100008.66
2023-12-21T05:20:55.224Z,100003.84
2023-12-21T05:23:22.372Z,99993.59
2023-12-21T05:25:49.870Z,99984.69
2023-12-21T05:28:17.617Z,99994.28
2023-12-21T05:30:44.853Z,99997.78
2023-12-21T05:33:14.789Z,99993.84
2023-12-21T05:35:42.011Z,99996.62
2023-12-21T05:38:09.748Z,99999.53
2023-12-21T05:40:37.362Z,100003.84
2023-12-21T05:43:04.567Z,99993.69
2023-12-21T05:45:31.841Z,99996.94
2023-12-21T05:48:00.649Z,99992.22
2023-12-21T05:50:27.951Z,99981.81
2023-12-21T05:52:55.181Z,99988.13
2023-12-21T05:55:23.245Z,99983.19
2023-12-21T05:57:51.009Z,99968.47
2023-12-21T06:00:18.421Z,99974.72
2023-12-21T06:02:46.183Z,99974.59
2023-12-21T06:05:14.119Z,99979.94
2023-12-21T06:07:41.451Z,99975.34
2023-12-21T06:10:09.708Z,99982.19
2023-12-21T06:12:37.077Z,99976.50
2023-12-21T06:15:05.819Z,99982.12
2023-12-21T06:17:33.353Z,99969.13
2023-12-21T06:20:01.233Z,99962.37
2023-12-21T06:22:30.767Z,99950.38
2023-12-21T06:24:58.799Z,99955.47
2023-12-21T06:27:26.040Z,99941.66
2023-12-21T06:29:53.238Z,99951.81
2023-12-21T06:32:20.752Z,99948.91
2023-12-21T06:34:48.434Z,99944.81
2023-12-21T06:37:15.854Z,99948.69
2023-12-21T06:39:43.364Z,99959.12
2023-12-21T06:42:10.801Z,99960.12
2023-12-21T06:44:38.528Z,99941.34
2023-12-21T06:47:05.979Z,99943.34
2023-12-21T06:49:33.398Z,99952.44
2023-12-21T06:52:00.748Z,99941.06
2023-12-21T06:54:28.781Z,99949.38
2023-12-21T06:56:55.918Z,99950.00
2023-12-21T06:59:23.119Z,99947.78
2023-12-21T07:01:51.130Z,99959.25
2023-12-21T07:04:18.336Z,99940.84
2023-12-21T07:06:47.989Z,99950.69
2023-12-21T07:09:16.798Z,99938.41
2023-12-21T07:11:45.539Z,99933.72
2023-12-21T07:14:14.210Z,99926.16
2023-12-21T07:16:41.667Z,99919.88
2023-12-21T07:19:09.087Z,99917.28
2023-12-21T07:21:36.398Z,99925.19
2023-12-21T07:24:04.000Z,99918.28
2023-12-21T07:26:31.269Z,99931.16
2023-12-21T07:28:58.993Z,99914.91
2023-12-21T07:31:27.503Z,99920.41
2023-12-21T07:33:54.765Z,99906.19
2023-12-21T07:36:22.492Z,99895.50
2023-12-21T07:38:49.980Z,99890.00
2023-12-21T07:41:17.268Z,99905.19
2023-12-21T07:43:46.011Z,99902.34
2023-12-21T07:46:15.175Z,99901.13
2023-12-21T07:48:45.204Z,99905.94
2023-12-21T07:51:13.100Z,99899.38
2023-12-21T07:53:40.503Z,99901.87
2023-12-21T07:56:09.446Z,99905.66
2023-12-21T07:58:47.917Z,99900.91
2023-12-21T08:01:16.050Z,99907.53
2023-12-21T08:03:43.700Z,99904.56
2023-12-21T08:06:19.983Z,99916.09
2023-12-21T08:08:56.748Z,99906.59
2023-12-21T08:11:27.137Z,99893.59
2023-12-21T08:13:56.625Z,99900.28
2023-12-21T08:16:24.553Z,99901.53
2023-12-21T08:18:51.868Z,99890.31
2023-12-21T08:21:19.517Z,99888.53
2023-12-21T08:23:46.668Z,99888.69
2023-12-21T08:26:13.869Z,99883.53
2023-12-21T08:28:43.185Z,99875.66
2023-12-21T08:31:11.668Z,99882.16
2023-12-21T08:33:39.748Z,99879.94
2023-12-21T08:36:07.523Z,99872.34
2023-12-21T08:38:35.271Z,99869.19
2023-12-21T08:41:03.941Z,99868.84
2023-12-21T08:43:33.728Z,99868.06
2023-12-21T08:46:01.269Z,99870.78
2023-12-21T08:48:29.188Z,99879.03
2023-12-21T08:50:56.682Z,99870.75
2023-12-21T08:53:24.691Z,99873.31
2023-12-21T08:55:52.058Z,99876.00
2023-12-21T08:58:20.384Z,99874.56
2023-12-21T09:00:47.847Z,99865.19
2023-12-21T09:03:15.146Z,99866.16
2023-12-21T09:05:43.162Z,99870.00
2023-12-21T09:08:10.903Z,99866.94
2023-12-21T09:10:41.128Z,99865.13
2023-12-21T09:13:14.108Z,99865.44
2023-12-21T09:15:42.952Z,99864.81
2023-12-21T09:18:12.061Z,99857.31
2023-12-21T09:20:39.353Z,99864.13
2023-12-21T09:23:06.566Z,99858.41
2023-12-21T09:25:34.088Z,99856.06
2023-12-21T09:28:03.992Z,99850.28
2023-12-21T09:30:33.668Z,99844.44
2023-12-21T09:33:01.784Z,99842.34
2023-12-21T09:35:29.448Z,99835.22
2023-12-21T09:37:57.241Z,99831.91
2023-12-21T09:40:26.540Z,99835.75
2023-12-21T09:43:04.547Z,99823.78
2023-12-21T09:45:37.946Z,99825.28
2023-12-21T09:48:06.587Z,99819.88
2023-12-21T09:50:35.065Z,99814.44
2023-12-21T09:53:02.774Z,99811.75
2023-12-21T09:55:32.196Z,99797.25
2023-12-21T09:58:00.041Z,99790.66
2023-12-21T10:00:31.008Z,99788.59
2023-12-21T10:02:58.754Z,99777.50
2023-12-21T10:05:26.635Z,99772.50
2023-12-21T10:07:53.793Z,99774.16
2023-12-21T10:10:21.488Z,99774.78
2023-12-21T10:12:49.138Z,99774.16
2023-12-21T10:15:20.541Z,99753.66
2023-12-21T10:17:49.048Z,99751.22
2023-12-21T10:20:16.822Z,99747.31
2023-12-21T10:22:44.492Z,99740.63
2023-12-21T10:25:12.162Z,99735.28
2023-12-21T10:27:41.751Z,99730.16
2023-12-21T10:30:16.848Z,99733.78
2023-12-21T10:32:46.035Z,99722.12
2023-12-21T10:35:16.884Z,99711.19
2023-12-21T10:37:44.636Z,99704.59
2023-12-21T10:40:22.425Z,99691.94
2023-12-21T10:42:50.887Z,99694.41
2023-12-21T10:45:30.046Z,99674.91
2023-12-21T10:48:06.159Z,99672.84
2023-12-21T10:50:34.096Z,99648.84
2023-12-21T10:53:02.238Z,99653.44
2023-12-21T10:55:30.067Z,99635.19
2023-12-21T10:57:57.904Z,99630.84
2023-12-21T11:00:27.358Z,99622.00
2023-12-21T11:03:11.132Z,99596.06
2023-12-21T11:05:41.226Z,99591.41
2023-12-21T11:08:09.003Z,99575.97
2023-12-21T11:10:36.878Z,99572.59
2023-12-21T11:13:04.917Z,99577.53
2023-12-21T11:15:34.271Z,99559.25
2023-12-21T11:18:04.419Z,99565.25
2023-12-21T11:20:42.180Z,99554.03
2023-12-21T11:23:14.822Z,99551.28
2023-12-21T11:25:44.157Z,99551.31
2023-12-21T11:28:12.231Z,99543.16
2023-12-21T11:30:44.160Z,99540.03
2023-12-21T11:33:13.150Z,99536.97
2023-12-21T11:35:41.052Z,99518.75
2023-12-21T11:38:08.798Z,99517.91
2023-12-21T11:40:37.042Z,99514.22
2023-12-21T11:43:08.016Z,99503.91
2023-12-21T11:45:47.901Z,99500.94
2023-12-21T11:48:18.196Z,99497.13
2023-12-21T11:50:49.194Z,99496.50
2023-12-21T11:53:33.109Z,99493.38
2023-12-21T11:56:15.355Z,99487.56
2023-12-21T11:58:44.968Z,99475.28
2023-12-21T12:01:23.165Z,99470.25
2023-12-21T12:03:51.412Z,99465.50
2023-12-21T12:06:19.252Z,99456.16
2023-12-21T12:08:49.315Z,99451.81
2023-12-21T12:11:17.290Z,99443.78
2023-12-21T12:13:45.042Z,99438.91
2023-12-21T12:16:16.062Z,99448.62
2023-12-21T12:18:44.346Z,99435.34
2023-12-21T12:21:12.116Z,99414.31
2023-12-21T12:23:41.438Z,99414.03
2023-12-21T12:26:17.902Z,99405.44
2023-12-21T12:28:45.878Z,99406.06
2023-12-21T12:31:14.016Z,99394.22
2023-12-21T12:33:42.572Z,99396.94
2023-12-21T12:36:10.709Z,99391.41
2023-12-21T12:38:38.673Z,99384.59
2023-12-21T12:41:08.161Z,99371.97
2023-12-21T12:43:36.357Z,99368.87
2023-12-21T12:46:06.052Z,99364.91
2023-12-21T12:48:33.996Z,99348.81
2023-12-21T12:51:01.249Z,99341.25
2023-12-21T12:53:30.939Z,99339.41
2023-12-21T12:56:01.444Z,99327.16
2023-12-21T12:58:44.350Z,99319.62
2023-12-21T13:01:22.396Z,99307.66
2023-12-21T13:03:51.982Z,99308.47
2023-12-21T13:06:19.953Z,99301.09
2023-12-21T13:08:47.925Z,99292.22
2023-12-21T13:11:17.210Z,99289.22
2023-12-21T13:13:48.439Z,99275.41
2023-12-21T13:16:19.027Z,99265.62
2023-12-21T13:18:46.853Z,99258.19
2023-12-21T13:21:14.620Z,99245.06
2023-12-21T13:23:43.403Z,99247.94
2023-12-21T13:26:13.638Z,99235.03
2023-12-21T13:28:44.857Z,99227.81
2023-12-21T13:31:13.186Z,99226.63
2023-12-21T13:33:41.132Z,99204.16
2023-12-21T13:36:11.319Z,99196.44
2023-12-21T13:38:41.973Z,99190.59
2023-12-21T13:41:10.524Z,99183.63
2023-12-21T13:43:38.552Z,99174.03
2023-12-21T13:46:08.204Z,99170.16
2023-12-21T13:48:36.643Z,99174.53
2023-12-21T13:51:04.993Z,99171.09
2023-12-21T13:53:35.456Z,99151.38
2023-12-21T13:56:04.021Z,99138.53
2023-12-21T13:58:35.490Z,99128.56
2023-12-21T14:01:05.592Z,99129.19
2023-12-21T14:03:33.758Z,99127.25
2023-12-21T14:06:01.050Z,99128.56
2023-12-21T14:08:28.747Z,99145.63
2023-12-21T14:10:59.342Z,99129.69
2023-12-21T14:13:26.706Z,99134.09
2023-12-21T14:15:53.888Z,99122.66
2023-12-21T14:18:21.306Z,99117.59
2023-12-21T14:20:52.607Z,99119.06
2023-12-21T14:23:22.974Z,99121.59
2023-12-21T14:25:50.519Z,99119.81
2023-12-21T14:28:17.917Z,99112.62
2023-12-21T14:30:45.115Z,99118.88
2023-12-21T14:33:13.454Z,99116.44
2023-12-21T14:35:40.750Z,99108.13
2023-12-21T14:38:08.087Z,99105.72
2023-12-21T14:40:36.301Z,99107.34
2023-12-21T14:43:04.295Z,99098.75
2023-12-21T14:45:31.572Z,99102.09
2023-12-21T14:47:59.045Z,99084.72
2023-12-21T14:50:26.306Z,99099.06
2023-12-21T14:52:54.381Z,99105.66
2023-12-21T14:55:22.086Z,99094.28
2023-12-21T14:57:50.673Z,99101.75
2023-12-21T15:00:18.270Z,99095.13
2023-12-21T15:02:45.878Z,99093.66
2023-12-21T15:05:14.052Z,99091.91
2023-12-21T15:07:41.494Z,99081.44
2023-12-21T15:10:10.011Z,99075.56
2023-12-21T15:12:38.683Z,99056.37
2023-12-21T15:15:05.992Z,99064.16
2023-12-21T15:17:33.850Z,99049.25
2023-12-21T15:20:01.078Z,99051.84
2023-12-21T15:22:29.008Z,99042.75
2023-12-21T15:24:56.494Z,99034.88
2023-12-21T15:27:26.867Z,99022.62
2023-12-21T15:29:54.080Z,99016.84
2023-12-21T15:32:25.394Z,99016.22
2023-12-21T15:34:52.930Z,99029.38
2023-12-21T15:37:20.243Z,99020.41
2023-12-21T15:39:47.759Z,99021.22
2023-12-21T15:42:14.937Z,99014.72
2023-12-21T15:44:42.102Z,99007.34
2023-12-21T15:47:09.639Z,99002.13
2023-12-21T15:49:36.968Z,98990.97
2023-12-21T15:52:08.677Z,98991.34
2023-12-21T15:54:36.352Z,98992.81
2023-12-21T15:57:03.623Z,98985.28
2023-12-21T15:59:35.653Z,98979.78
2023-12-21T16:02:03.849Z,98961.03
2023-12-21T16:04:34.831Z,98944.78
2023-12-21T16:07:03.892Z,98953.03
2023-12-21T16:09:31.875Z,98939.13
2023-12-21T16:11:59.263Z,98943.03
2023-12-21T16:14:26.494Z,98938.97
2023-12-21T16:16:54.136Z,98927.00
2023-12-21T16:19:21.623Z,98920.88
2023-12-21T16:21:49.732Z,98914.56
2023-12-21T16:24:17.417Z,98898.41
2023-12-21T16:26:44.712Z,98906.06
2023-12-21T16:29:12.294Z,98900.66
2023-12-21T16:31:40.036Z,98911.25
2023-12-21T16:34:07.548Z,98903.72
2023-12-21T16:36:34.877Z,98906.91
2023-12-21T16:39:04.976Z,98900.72
2023-12-21T16:41:32.135Z,98898.69
2023-12-21T16:44:00.435Z,98895.50
2023-12-21T16:46:31.079Z,98888.16
2023-12-21T16:48:58.296Z,98879.31
2023-12-21T16:51:27.646Z,98874.88
2023-12-21T16:53:55.072Z,98863.59
2023-12-21T16:56:22.953Z,98852.06
2023-12-21T16:58:50.184Z,98850.00
2023-12-21T17:01:19.245Z,98841.53
2023-12-21T17:03:48.674Z,98820.03
2023-12-21T17:06:16.829Z,98834.09
2023-12-21T17:08:44.288Z,98822.00
2023-12-21T17:11:11.513Z,98808.06
2023-12-21T17:13:38.829Z,98807.22
2023-12-21T17:16:08.421Z,98807.50
2023-12-21T17:18:35.894Z,98785.53
2023-12-21T17:21:03.196Z,98771.78
2023-12-21T17:23:30.641Z,98765.06
2023-12-21T17:25:59.406Z,98751.09
2023-12-21T17:28:26.929Z,98744.66
2023-12-21T17:30:54.584Z,98743.75
2023-12-21T17:33:22.171Z,98736.50
2023-12-21T17:35:54.105Z,98724.62
2023-12-21T17:38:21.617Z,98731.44
2023-12-21T17:40:48.879Z,98714.72
2023-12-21T17:43:16.153Z,98705.78
2023-12-21T17:45:44.282Z,98705.59
2023-12-21T17:48:25.263Z,98700.03
2023-12-21T17:50:53.115Z,98685.03
2023-12-21T17:53:20.336Z,98693.06
2023-12-21T17:55:47.515Z,98697.72
2023-12-21T17:58:18.519Z,98688.78
2023-12-21T18:00:46.490Z,98686.12
2023-12-21T18:03:16.647Z,98690.00
2023-12-21T18:05:45.452Z,98686.50
2023-12-21T18:08:15.356Z,98684.72
2023-12-21T18:10:42.852Z,98679.34
2023-12-21T18:13:12.428Z,98676.34
2023-12-21T18:15:40.265Z,98682.16
2023-12-21T18:18:08.347Z,98669.00
2023-12-21T18:20:35.552Z,98675.75
2023-12-21T18:23:02.690Z,98667.37
2023-12-21T18:25:30.196Z,98671.94
2023-12-21T18:27:58.563Z,98658.81
2023-12-21T18:30:25.735Z,98646.75
2023-12-21T18:32:59.633Z,98648.94
2023-12-21T18:35:27.360Z,98634.38
2023-12-21T18:38:00.829Z,98623.94
2023-12-21T18:40:29.142Z,98616.22
2023-12-21T18:42:57.174Z,98620.16
2023-12-21T18:45:24.975Z,98615.63
2023-12-21T18:47:54.822Z,98615.38
2023-12-21T18:50:22.909Z,98602.41
2023-12-21T18:52:54.503Z,98596.19
2023-12-21T18:55:22.645Z,98577.16
2023-12-21T18:57:50.453Z,98571.59
2023-12-21T19:00:20.064Z,98562.00
2023-12-21T19:02:49.222Z,98547.44
2023-12-21T19:05:17.040Z,98541.03
2023-12-21T19:07:45.707Z,98537.13
2023-12-21T19:10:13.844Z,98530.97
2023-12-21T19:12:42.937Z,98523.63
2023-12-21T19:15:10.636Z,98528.66
2023-12-21T19:17:39.385Z,98520.56
2023-12-21T19:20:07.536Z,98507.91
2023-12-21T19:22:35.329Z,98509.16
2023-12-21T19:25:03.728Z,98498.41
2023-12-21T19:27:31.534Z,98492.91
2023-12-21T19:29:59.233Z,98486.50
2023-12-21T19:32:27.258Z,98476.31
2023-12-21T19:34:55.247Z,98466.81
2023-12-21T19:37:23.105Z,98458.19
2023-12-21T19:39:51.194Z,98461.50
2023-12-21T19:42:18.905Z,98453.56
2023-12-21T19:44:47.584Z,98447.84
2023-12-21T19:47:15.553Z,98455.63
2023-12-21T19:49:43.281Z,98451.63
2023-12-21T19:52:11.164Z,98454.50
2023-12-21T19:54:39.593Z,98442.09
2023-12-21T19:57:09.506Z,98432.50
2023-12-21T19:59:38.564Z,98422.87
2023-12-21T20:02:07.564Z,98423.47
2023-12-21T20:04:37.867Z,98421.53
2023-12-21T20:07:05.584Z,98420.97
2023-12-21T20:09:34.358Z,98410.84
2023-12-21T20:12:02.482Z,98397.28
2023-12-21T20:14:30.171Z,98392.94
2023-12-21T20:16:57.977Z,98392.94
2023-12-21T20:19:27.915Z,98400.94
2023-12-21T20:21:56.054Z,98400.13
2023-12-21T20:24:23.970Z,98384.22
2023-12-21T20:26:51.969Z,98373.88
2023-12-21T20:29:19.714Z,98366.59
2023-12-21T20:31:47.453Z,98361.44
2023-12-21T20:34:15.518Z,98357.72
2023-12-21T20:36:45.213Z,98351.50
2023-12-21T20:39:15.248Z,98337.75
2023-12-21T20:41:43.187Z,98334.13
2023-12-21T20:44:10.838Z,98319.47
2023-12-21T20:46:38.598Z,98320.19
2023-12-21T20:49:08.133Z,98302.59
2023-12-21T20:51:35.899Z,98307.44
2023-12-21T20:54:04.160Z,98301.13
2023-12-21T20:56:32.231Z,98304.41
2023-12-21T20:58:59.978Z,98296.06
2023-12-21T21:01:30.707Z,98304.88
2023-12-21T21:03:58.459Z,98306.28
2023-12-21T21:06:26.190Z,98295.72
2023-12-21T21:08:53.902Z,98286.31
2023-12-21T21:11:22.180Z,98295.97
2023-12-21T21:13:53.241Z,98295.72
2023-12-21T21:16:25.188Z,98327.94
2023-12-21T21:18:53.119Z,98322.25
2023-12-21T21:21:21.170Z,98310.94
2023-12-21T21:23:50.079Z,98315.78
2023-12-21T21:26:17.748Z,98309.53
2023-12-21T21:28:45.310Z,98293.00
2023-12-21T21:31:17.022Z,98259.47
2023-12-21T21:33:45.560Z,98242.72
2023-12-21T21:36:14.105Z,98248.56
2023-12-21T21:38:42.931Z,98259.62
2023-12-21T21:41:17.617Z,98250.25
2023-12-21T21:43:45.673Z,98248.63
2023-12-21T21:46:14.653Z,98242.63
2023-12-21T21:48:42.848Z,98243.81
2023-12-21T21:51:13.913Z,98235.50
2023-12-21T21:53:44.134Z,98224.72
2023-12-21T21:56:12.614Z,98209.25
2023-12-21T21:58:40.599Z,98211.94
2023-12-21T22:01:11.025Z,98215.94
2023-12-21T22:03:39.305Z,98214.75
2023-12-21T22:06:07.027Z,98212.28
2023-12-21T22:08:34.727Z,98224.13
2023-12-21T22:11:03.328Z,98218.50
2023-12-21T22:13:32.201Z,98229.28
2023-12-21T22:15:59.944Z,98220.25
2023-12-21T22:18:28.120Z,98206.31
2023-12-21T22:20:55.917Z,98185.56
2023-12-21T22:23:23.647Z,98132.97
2023-12-21T22:25:51.724Z,98136.41
2023-12-21T22:28:19.149Z,98138.41
2023-12-21T22:30:46.916Z,98141.78
2023-12-21T22:33:16.161Z,98132.84
2023-12-21T22:35:43.978Z,98147.66
2023-12-21T22:38:11.850Z,98139.22
2023-12-21T22:40:39.879Z,98140.28
2023-12-21T22:43:07.106Z,98127.94
2023-12-21T22:45:34.322Z,98165.25
2023-12-21T22:48:02.415Z,98153.62
2023-12-21T22:50:30.382Z,98184.97
2023-12-21T22:52:58.453Z,98165.59
2023-12-21T22:55:26.887Z,98175.22
2023-12-21T22:57:54.975Z,98171.84
2023-12-21T23:00:23.310Z,98169.72
2023-12-21T23:02:50.928Z,98162.44
2023-12-21T23:05:18.762Z,98159.28
2023-12-21T23:07:47.140Z,98122.50
2023-12-21T23:10:15.532Z,98087.44
2023-12-21T23:12:47.189Z,98103.09
2023-12-21T23:15:16.162Z,98075.06
2023-12-21T23:17:44.192Z,98083.69
2023-12-21T23:20:12.028Z,98081.19
2023-12-21T23:22:40.090Z,98096.88
2023-12-21T23:25:07.941Z,98068.53
2023-12-21T23:27:35.719Z,98055.53
2023-12-21T23:30:03.769Z,98039.41
2023-12-21T23:32:34.017Z,98029.72
2023-12-21T23:35:12.792Z,98027.94
2023-12-21T23:37:45.999Z,98035.56
2023-12-21T23:40:14.149Z,98032.97
2023-12-21T23:42:43.178Z,98036.34
2023-12-21T23:45:11.160Z,98047.63
2023-12-21T23:47:39.450Z,98051.63
2023-12-21T23:50:07.455Z,98055.41
2023-12-21T23:52:35.563Z,98057.28
2023-12-21T23:55:03.330Z,98091.47
2023-12-21T23:57:31.104Z,98103.53
2023-12-21T23:59:59.843Z,98141.41
